Time;durP1;ratioP1;P1;durP2;ratioP2;P2;SDS_P1;SDS_P2;PMS_P1;PMS_P2;Temp;Humidity;BMP_temperature;BMP_pressure;BME280_temperature;BME280_humidity;BME280_pressure;Samples;Min_cycle;Max_cycle;Signal;HPM_P1;HPM_P2
2022/03/15 00:02:21;;;;;;;15.60;7.68;;;5.30;99.90;;;;;;5051958;28;20406;-69
2022/03/15 00:04:47;;;;;;;14.20;7.93;;;5.30;99.90;;;;;;5052243;28;20041;-69
2022/03/15 00:07:15;;;;;;;13.60;7.28;;;5.30;99.90;;;;;;5051716;28;20037;-69
2022/03/15 00:09:41;;;;;;;9.30;5.82;;;5.30;99.90;;;;;;5052069;28;20043;-69
2022/03/15 00:12:09;;;;;;;16.20;6.28;;;5.20;99.90;;;;;;5052207;28;20041;-69
2022/03/15 00:14:37;;;;;;;11.65;6.15;;;5.20;99.90;;;;;;5051876;28;20036;-69
2022/03/15 00:17:05;;;;;;;14.48;7.20;;;5.10;99.90;;;;;;5051789;28;20052;-69
2022/03/15 00:19:32;;;;;;;15.73;6.97;;;5.10;99.90;;;;;;5051858;28;20045;-69
2022/03/15 00:21:58;;;;;;;13.18;7.65;;;5.10;99.90;;;;;;5051821;28;20052;-69
2022/03/15 00:24:23;;;;;;;11.95;6.80;;;5.00;99.90;;;;;;5051865;28;20037;-69
2022/03/15 00:26:50;;;;;;;14.18;7.88;;;5.00;99.90;;;;;;5051256;28;20048;-69
2022/03/15 00:29:17;;;;;;;20.13;8.10;;;4.90;99.90;;;;;;5051477;28;20609;-69
2022/03/15 00:31:44;;;;;;;17.00;7.43;;;5.00;99.90;;;;;;5051787;28;20410;-69
2022/03/15 00:34:10;;;;;;;16.75;7.95;;;4.90;99.90;;;;;;5051481;28;20037;-69
2022/03/15 00:36:37;;;;;;;20.50;9.45;;;4.90;99.90;;;;;;5051277;28;20052;-69
2022/03/15 00:39:04;;;;;;;17.40;8.10;;;4.90;99.90;;;;;;5051410;28;20037;-69
2022/03/15 00:41:29;;;;;;;17.90;8.25;;;4.90;99.90;;;;;;5033660;28;20568;-69
2022/03/15 00:43:55;;;;;;;13.63;8.90;;;4.90;99.90;;;;;;5051728;28;20041;-69
2022/03/15 00:46:20;;;;;;;19.25;8.93;;;4.90;99.90;;;;;;5051257;28;20076;-69
2022/03/15 00:48:46;;;;;;;16.88;8.80;;;4.90;99.90;;;;;;5051322;28;20079;-69
2022/03/15 00:51:12;;;;;;;15.73;8.35;;;4.80;99.90;;;;;;5051475;28;20040;-69
2022/03/15 00:53:37;;;;;;;16.27;9.80;;;4.80;99.90;;;;;;5051458;28;20087;-69
2022/03/15 00:56:04;;;;;;;13.43;8.15;;;4.90;99.90;;;;;;5037280;28;20113;-70
2022/03/15 00:58:30;;;;;;;13.15;8.25;;;4.80;99.90;;;;;;5055415;28;20076;-69
2022/03/15 01:00:56;;;;;;;14.00;8.20;;;4.80;99.90;;;;;;5055464;28;20535;-69
2022/03/15 01:03:22;;;;;;;12.70;8.82;;;4.80;99.90;;;;;;5021171;28;20102;-69
2022/03/15 01:05:48;;;;;;;14.90;8.57;;;4.70;99.90;;;;;;5054767;28;20041;-69
2022/03/15 01:08:14;;;;;;;24.90;8.73;;;4.80;99.90;;;;;;5055100;28;20041;-69
2022/03/15 01:10:41;;;;;;;12.43;8.43;;;4.70;99.90;;;;;;5037225;28;20509;-69
2022/03/15 01:13:06;;;;;;;13.95;8.77;;;4.70;99.90;;;;;;5055299;28;20041;-69
2022/03/15 01:15:39;;;;;;;12.98;8.50;;;4.70;99.90;;;;;;5054681;28;20532;-69
2022/03/15 01:18:04;;;;;;;14.52;8.77;;;4.70;99.90;;;;;;5037305;28;20398;-69
2022/03/15 01:20:30;;;;;;;17.08;8.35;;;4.60;99.90;;;;;;5054903;28;20039;-69
2022/03/15 01:22:56;;;;;;;14.80;8.93;;;4.70;99.90;;;;;;5037014;28;20037;-69
2022/03/15 01:25:22;;;;;;;16.20;9.48;;;4.70;99.90;;;;;;5054335;28;20033;-69
2022/03/15 01:27:48;;;;;;;17.42;8.52;;;4.60;99.90;;;;;;5054997;28;20039;-69
2022/03/15 01:30:13;;;;;;;13.93;8.10;;;4.70;99.90;;;;;;5054598;28;20375;-69
2022/03/15 01:32:39;;;;;;;17.35;8.43;;;4.60;99.90;;;;;;5054791;28;20556;-69
2022/03/15 01:35:05;;;;;;;21.58;9.43;;;4.60;99.90;;;;;;5054692;28;20041;-69
2022/03/15 01:37:31;;;;;;;15.77;8.38;;;4.60;99.90;;;;;;5054347;28;20422;-69
2022/03/15 01:39:56;;;;;;;23.88;8.85;;;4.60;99.90;;;;;;5054348;28;20439;-69
2022/03/15 01:42:22;;;;;;;14.48;8.23;;;4.60;99.90;;;;;;5054704;28;20041;-69
2022/03/15 01:44:49;;;;;;;14.23;8.52;;;4.60;99.90;;;;;;5054636;28;20084;-69
2022/03/15 01:47:15;;;;;;;22.33;9.93;;;4.50;99.90;;;;;;5054278;28;20041;-69
2022/03/15 01:49:41;;;;;;;18.42;9.27;;;4.60;99.90;;;;;;5054493;28;20222;-69
2022/03/15 01:52:10;;;;;;;16.70;9.10;;;4.60;99.90;;;;;;5054683;28;20040;-69
2022/03/15 01:54:36;;;;;;;18.35;9.35;;;4.60;99.90;;;;;;5054330;28;20052;-69
2022/03/15 01:57:03;;;;;;;23.85;9.50;;;4.60;99.90;;;;;;5054382;28;20041;-70
2022/03/15 01:59:31;;;;;;;17.80;8.52;;;4.50;99.90;;;;;;5054352;28;20044;-69
2022/03/15 02:01:56;;;;;;;12.77;7.72;;;4.50;99.90;;;;;;5054279;28;20045;-69
2022/03/15 02:04:22;;;;;;;16.80;8.57;;;4.60;99.90;;;;;;5054271;28;20418;-69
2022/03/15 02:06:50;;;;;;;16.17;8.65;;;4.50;99.90;;;;;;5052637;28;20423;-69
2022/03/15 02:09:16;;;;;;;18.25;8.43;;;4.50;99.90;;;;;;5053655;28;20051;-69
2022/03/15 02:11:43;;;;;;;20.45;8.90;;;4.50;99.90;;;;;;5053948;28;20048;-69
2022/03/15 02:14:08;;;;;;;21.67;8.57;;;4.50;99.90;;;;;;5053984;28;20040;-69
2022/03/15 02:16:34;;;;;;;13.75;7.50;;;4.50;99.90;;;;;;5053621;28;20106;-69
2022/03/15 02:19:01;;;;;;;15.63;7.93;;;4.50;99.90;;;;;;5053654;28;20041;-69
2022/03/15 02:21:27;;;;;;;16.38;8.52;;;4.50;99.90;;;;;;5053599;28;20513;-69
2022/03/15 02:23:53;;;;;;;15.80;7.68;;;4.50;99.90;;;;;;5053982;28;20055;-69
2022/03/15 02:26:19;;;;;;;15.73;8.43;;;4.50;99.90;;;;;;5053426;28;20041;-69
2022/03/15 02:28:45;;;;;;;12.85;7.43;;;4.50;99.90;;;;;;5053497;28;20029;-69
2022/03/15 02:31:11;;;;;;;13.98;8.60;;;4.50;99.90;;;;;;5053666;28;20094;-69
2022/03/15 02:33:36;;;;;;;14.65;7.90;;;4.50;99.90;;;;;;5053613;28;20033;-69
2022/03/15 02:36:02;;;;;;;15.77;9.10;;;4.50;99.90;;;;;;5053103;28;20090;-69
2022/03/15 02:38:28;;;;;;;22.33;9.45;;;4.50;99.90;;;;;;5053749;28;20116;-69
2022/03/15 02:40:54;;;;;;;12.43;7.85;;;4.50;99.90;;;;;;5053650;28;20510;-69
2022/03/15 02:43:20;;;;;;;17.85;10.20;;;4.50;99.90;;;;;;5053506;28;20048;-69
2022/03/15 02:45:45;;;;;;;17.83;9.52;;;4.50;99.90;;;;;;5052965;28;20067;-69
2022/03/15 02:48:11;;;;;;;15.93;7.97;;;4.50;99.90;;;;;;5053075;28;20037;-69
2022/03/15 02:50:36;;;;;;;17.50;9.35;;;4.50;99.90;;;;;;5053165;28;20037;-69
2022/03/15 02:53:02;;;;;;;17.55;9.90;;;4.50;99.90;;;;;;5053429;28;20124;-69
2022/03/15 02:55:32;;;;;;;17.23;10.05;;;4.50;99.90;;;;;;5053033;28;20041;-69
2022/03/15 02:57:58;;;;;;;17.17;9.65;;;4.50;99.90;;;;;;5052999;28;20051;-68
2022/03/15 03:00:24;;;;;;;24.52;11.20;;;4.60;99.90;;;;;;5053185;28;20121;-69
2022/03/15 03:02:50;;;;;;;20.67;11.55;;;4.60;99.90;;;;;;5053000;28;20041;-69
2022/03/15 03:05:15;;;;;;;18.85;10.95;;;4.70;99.90;;;;;;5052622;28;20452;-69
2022/03/15 03:07:41;;;;;;;20.35;10.55;;;4.70;99.90;;;;;;5052839;28;20494;-69
2022/03/15 03:10:07;;;;;;;22.02;11.18;;;4.70;99.90;;;;;;5034994;28;20037;-69
2022/03/15 03:12:33;;;;;;;22.50;12.23;;;4.80;99.90;;;;;;5052960;28;20044;-69
2022/03/15 03:15:01;;;;;;;20.58;11.63;;;4.80;99.90;;;;;;5052810;28;20037;-69
2022/03/15 03:17:27;;;;;;;22.33;12.20;;;4.90;99.90;;;;;;5052358;28;20041;-69
2022/03/15 03:19:53;;;;;;;20.50;11.93;;;4.90;99.90;;;;;;5052490;28;20048;-69
2022/03/15 03:22:19;;;;;;;22.83;11.70;;;4.90;99.90;;;;;;5052872;28;20406;-69
2022/03/15 03:24:45;;;;;;;24.90;12.27;;;5.00;99.90;;;;;;5052732;28;20056;-69
2022/03/15 03:27:13;;;;;;;23.70;12.50;;;5.00;99.90;;;;;;5052324;28;20047;-69
2022/03/15 03:29:41;;;;;;;23.30;10.60;;;5.00;99.90;;;;;;5052175;28;20486;-69
2022/03/15 03:32:08;;;;;;;22.60;12.00;;;5.00;99.90;;;;;;5052477;28;20068;-69
2022/03/15 03:34:34;;;;;;;25.73;12.50;;;5.00;99.90;;;;;;5034507;28;20049;-69
2022/03/15 03:36:59;;;;;;;29.35;13.57;;;5.10;99.90;;;;;;5052350;28;20056;-70
2022/03/15 03:39:25;;;;;;;21.92;13.05;;;5.10;99.90;;;;;;5052473;28;20040;-69
2022/03/15 03:41:50;;;;;;;21.58;12.38;;;5.10;99.90;;;;;;5052389;28;20073;-69
2022/03/15 03:44:16;;;;;;;25.63;13.02;;;5.10;99.90;;;;;;5052355;28;20040;-69
2022/03/15 03:46:42;;;;;;;26.05;15.23;;;5.20;99.90;;;;;;5051910;28;20041;-69
2022/03/15 03:49:07;;;;;;;25.35;13.82;;;5.20;99.90;;;;;;5052046;28;20487;-69
2022/03/15 03:51:33;;;;;;;23.05;13.75;;;5.20;99.90;;;;;;5052333;28;20457;-69
2022/03/15 03:53:58;;;;;;;27.42;14.07;;;5.20;99.90;;;;;;5052251;28;20376;-69
2022/03/15 03:56:24;;;;;;;23.60;12.48;;;5.20;99.90;;;;;;5051725;28;20045;-69
2022/03/15 03:58:49;;;;;;;25.00;14.43;;;5.20;99.90;;;;;;5051842;28;20044;-69
2022/03/15 04:01:15;;;;;;;31.02;15.52;;;5.20;99.90;;;;;;5051916;28;20067;-69
2022/03/15 04:03:40;;;;;;;26.40;14.38;;;5.20;99.90;;;;;;5051817;28;20037;-69
2022/03/15 04:06:06;;;;;;;24.00;14.18;;;5.20;99.90;;;;;;5051723;28;20403;-69
2022/03/15 04:08:32;;;;;;;21.75;13.90;;;5.20;99.90;;;;;;5051925;28;20041;-69
2022/03/15 04:10:58;;;;;;;25.00;16.25;;;5.20;99.90;;;;;;5051774;28;20564;-69
2022/03/15 04:13:26;;;;;;;27.05;13.80;;;5.20;99.90;;;;;;5051753;28;20119;-69
2022/03/15 04:15:52;;;;;;;30.90;16.15;;;5.30;99.90;;;;;;5051461;28;20051;-69
2022/03/15 04:18:18;;;;;;;25.17;16.77;;;5.30;99.90;;;;;;5033768;28;20049;-69
2022/03/15 04:20:44;;;;;;;30.27;16.80;;;5.30;99.90;;;;;;5051611;28;20406;-69
2022/03/15 04:23:10;;;;;;;30.20;18.23;;;5.30;99.90;;;;;;5051791;28;20041;-69
2022/03/15 04:25:37;;;;;;;29.20;16.25;;;5.30;99.90;;;;;;5050424;28;20052;-69
2022/03/15 04:28:03;;;;;;;34.92;19.13;;;5.40;99.90;;;;;;5033056;28;20033;-69
2022/03/15 04:30:29;;;;;;;31.60;18.77;;;5.30;99.90;;;;;;5077225;22;21017;-70
2022/03/15 04:32:55;;;;;;;31.25;18.33;;;5.30;99.90;;;;;;5089732;28;20494;-70
2022/03/15 04:35:21;;;;;;;31.38;18.92;;;5.30;99.90;;;;;;5072847;28;20066;-70
2022/03/15 04:37:48;;;;;;;32.83;20.75;;;5.30;99.90;;;;;;5073655;28;20047;-70
2022/03/15 04:40:16;;;;;;;31.25;19.35;;;5.30;99.90;;;;;;5072526;28;20040;-69
2022/03/15 04:42:41;;;;;;;31.83;18.90;;;5.30;99.90;;;;;;5091634;28;20063;-70
2022/03/15 04:45:08;;;;;;;29.95;18.17;;;5.40;99.90;;;;;;5091546;28;20534;-69
2022/03/15 04:47:33;;;;;;;34.95;17.65;;;5.40;99.90;;;;;;5091425;28;20072;-70
2022/03/15 04:49:59;;;;;;;33.10;17.33;;;5.50;99.90;;;;;;5073537;28;20075;-70
2022/03/15 04:52:25;;;;;;;34.85;18.27;;;5.50;99.90;;;;;;5073510;28;20044;-70
2022/03/15 04:54:50;;;;;;;29.60;16.08;;;5.50;99.90;;;;;;5091620;28;20036;-69
2022/03/15 04:57:16;;;;;;;28.90;16.30;;;5.50;99.90;;;;;;5091211;28;20043;-69
2022/03/15 04:59:41;;;;;;;31.45;16.52;;;5.50;99.90;;;;;;5073462;28;20440;-70
2022/03/15 05:02:07;;;;;;;35.90;18.50;;;5.50;99.90;;;;;;5091056;28;20041;-70
2022/03/15 05:04:32;;;;;;;30.35;17.58;;;5.60;99.90;;;;;;5091381;28;20043;-70
2022/03/15 05:06:58;;;;;;;31.95;18.27;;;5.60;99.90;;;;;;5073020;28;20039;-70
2022/03/15 05:09:23;;;;;;;36.45;17.83;;;5.50;99.90;;;;;;5091509;28;20036;-70
2022/03/15 05:11:49;;;;;;;30.48;18.83;;;5.50;99.90;;;;;;5073234;28;20177;-69
2022/03/15 05:14:15;;;;;;;32.35;17.52;;;5.50;99.90;;;;;;5073251;28;20128;-70
2022/03/15 05:16:41;;;;;;;32.80;18.38;;;5.50;99.90;;;;;;5091093;28;20044;-70
2022/03/15 05:19:06;;;;;;;26.73;17.10;;;5.50;99.90;;;;;;5091195;28;20173;-69
2022/03/15 05:21:32;;;;;;;30.95;16.88;;;5.50;99.90;;;;;;5073009;28;20552;-70
2022/03/15 05:23:57;;;;;;;31.50;18.00;;;5.50;99.90;;;;;;5091285;28;20048;-69
2022/03/15 05:26:23;;;;;;;41.05;18.00;;;5.50;99.90;;;;;;5056252;28;20044;-70
2022/03/15 05:28:50;;;;;;;33.25;16.63;;;5.50;99.90;;;;;;5073177;28;20094;-69
2022/03/15 05:31:17;;;;;;;31.10;15.68;;;5.50;99.90;;;;;;5056090;28;20485;-70
2022/03/15 05:33:43;;;;;;;29.00;15.82;;;5.50;99.90;;;;;;5091238;28;20475;-70
2022/03/15 05:36:09;;;;;;;25.55;14.95;;;5.50;99.90;;;;;;5090996;28;20044;-70
2022/03/15 05:38:35;;;;;;;24.45;16.88;;;5.50;99.90;;;;;;5073454;28;20050;-69
2022/03/15 05:41:01;;;;;;;28.73;16.75;;;5.50;99.90;;;;;;5091595;28;20048;-69
2022/03/15 05:43:27;;;;;;;24.25;15.35;;;5.40;99.90;;;;;;5094590;28;20044;-69
2022/03/15 05:45:52;;;;;;;33.85;17.00;;;5.50;99.90;;;;;;5094498;28;20043;-70
2022/03/15 05:48:19;;;;;;;26.23;16.70;;;5.50;99.90;;;;;;5094703;28;20134;-70
2022/03/15 05:50:44;;;;;;;29.52;16.60;;;5.50;99.90;;;;;;5094589;28;20417;-70
2022/03/15 05:53:10;;;;;;;28.85;16.20;;;5.50;99.90;;;;;;5094509;28;20048;-69
2022/03/15 05:55:36;;;;;;;29.10;17.50;;;5.40;99.90;;;;;;5094200;28;20043;-70
2022/03/15 05:58:03;;;;;;;27.83;17.63;;;5.40;99.90;;;;;;5075934;28;20059;-69
2022/03/15 06:00:32;;;;;;;26.85;17.23;;;5.40;99.90;;;;;;5094478;28;20040;-70
2022/03/15 06:02:58;;;;;;;35.17;19.13;;;5.30;99.90;;;;;;5059407;28;20040;-70
2022/03/15 06:05:23;;;;;;;31.00;19.00;;;5.30;99.90;;;;;;5093854;28;20044;-70
2022/03/15 06:07:51;;;;;;;28.92;17.42;;;5.30;99.90;;;;;;5094359;28;20128;-69
2022/03/15 06:10:25;;;;;;;35.38;18.45;;;5.30;99.90;;;;;;5075947;28;20036;-69
2022/03/15 06:12:51;;;;;;;33.88;18.88;;;5.40;99.90;;;;;;5076392;28;20044;-70
2022/03/15 06:15:18;;;;;;;29.90;20.05;;;5.40;99.90;;;;;;5094065;28;20111;-69
2022/03/15 06:17:48;;;;;;;41.92;20.70;;;5.40;99.90;;;;;;5094005;28;20043;-70
2022/03/15 06:20:15;;;;;;;39.05;20.77;;;5.40;99.90;;;;;;5075933;28;20036;-70
2022/03/15 06:22:41;;;;;;;41.17;22.15;;;5.40;99.90;;;;;;5075702;28;20080;-69
2022/03/15 06:25:08;;;;;;;36.20;22.08;;;5.40;99.90;;;;;;5093749;28;20079;-70
2022/03/15 06:27:34;;;;;;;46.50;24.65;;;5.40;99.90;;;;;;5075254;28;20042;-70
2022/03/15 06:30:00;;;;;;;45.45;23.13;;;5.40;99.90;;;;;;5093860;28;20230;-70
2022/03/15 06:32:26;;;;;;;37.90;22.17;;;5.40;99.90;;;;;;5093520;28;20497;-69
2022/03/15 06:34:51;;;;;;;36.35;21.55;;;5.40;99.90;;;;;;5093830;28;20040;-70
2022/03/15 06:37:17;;;;;;;45.90;24.23;;;5.50;99.90;;;;;;5093368;28;20413;-70
2022/03/15 06:39:44;;;;;;;35.65;22.30;;;5.50;99.90;;;;;;5075817;28;20113;-70
2022/03/15 06:42:11;;;;;;;37.75;22.45;;;5.60;99.90;;;;;;5075578;28;20039;-70
2022/03/15 06:44:43;;;;;;;39.47;25.05;;;5.70;99.90;;;;;;5093539;28;20032;-70
2022/03/15 06:47:09;;;;;;;44.63;25.25;;;5.70;99.90;;;;;;5075041;28;20040;-70
2022/03/15 06:49:35;;;;;;;41.42;23.95;;;5.70;99.90;;;;;;5093523;28;20040;-70
2022/03/15 06:52:01;;;;;;;41.63;23.50;;;5.70;99.90;;;;;;5074878;28;20527;-70
2022/03/15 06:54:26;;;;;;;41.63;24.33;;;5.70;99.90;;;;;;5075262;28;20038;-70
2022/03/15 06:56:53;;;;;;;39.17;23.23;;;5.70;99.90;;;;;;5074860;28;20040;-70
2022/03/15 06:59:19;;;;;;;58.42;28.58;;;5.80;99.90;;;;;;5075375;28;20051;-70
2022/03/15 07:01:45;;;;;;;52.70;27.58;;;5.70;99.90;;;;;;5075042;28;20089;-70
2022/03/15 07:04:11;;;;;;;45.15;26.42;;;5.70;99.90;;;;;;5074801;28;20628;-70
2022/03/15 07:06:36;;;;;;;48.75;25.70;;;5.70;99.90;;;;;;5074453;28;20066;-70
2022/03/15 07:09:02;;;;;;;49.03;25.33;;;5.70;99.90;;;;;;5066101;28;20087;-70
2022/03/15 07:11:28;;;;;;;51.17;27.35;;;5.70;99.90;;;;;;5054680;28;20032;-70
2022/03/15 07:13:53;;;;;;;43.50;26.00;;;5.70;99.90;;;;;;5054746;28;20032;-69
2022/03/15 07:16:19;;;;;;;48.15;27.83;;;5.80;99.90;;;;;;5054415;28;20044;-69
2022/03/15 07:18:45;;;;;;;48.20;26.40;;;5.80;99.90;;;;;;5059904;28;20081;-69
2022/03/15 07:21:11;;;;;;;50.00;28.65;;;5.80;99.90;;;;;;5081552;28;20036;-69
2022/03/15 07:23:37;;;;;;;45.45;28.80;;;5.80;99.90;;;;;;5081684;28;20039;-69
2022/03/15 07:26:03;;;;;;;62.33;30.20;;;5.90;99.90;;;;;;5053820;28;20074;-69
2022/03/15 07:28:29;;;;;;;50.17;28.05;;;5.90;99.90;;;;;;5054331;28;20036;-70
2022/03/15 07:30:54;;;;;;;46.83;27.75;;;5.90;99.90;;;;;;5072405;28;20424;-69
2022/03/15 07:33:20;;;;;;;52.85;28.55;;;6.00;99.90;;;;;;5072452;28;20040;-70
2022/03/15 07:35:45;;;;;;;60.42;31.35;;;6.00;99.90;;;;;;5053878;28;20045;-69
2022/03/15 07:38:16;;;;;;;54.63;30.55;;;6.00;99.90;;;;;;5072502;28;20119;-69
2022/03/15 07:40:43;;;;;;;54.05;32.17;;;6.00;99.90;;;;;;5054220;28;20051;-69
2022/03/15 07:43:08;;;;;;;53.95;30.33;;;6.00;99.90;;;;;;5072156;28;20197;-69
2022/03/15 07:45:34;;;;;;;51.70;30.35;;;6.10;99.90;;;;;;5053680;28;20498;-69
2022/03/15 07:47:59;;;;;;;51.78;29.33;;;6.10;99.90;;;;;;5081605;28;20040;-69
2022/03/15 07:50:25;;;;;;;56.08;30.50;;;6.20;99.90;;;;;;5072697;28;20081;-69
2022/03/15 07:52:52;;;;;;;54.95;32.80;;;6.20;99.90;;;;;;5072166;28;20032;-69
2022/03/15 07:55:20;;;;;;;57.80;32.38;;;6.20;99.90;;;;;;5058764;28;20550;-69
2022/03/15 07:57:45;;;;;;;53.88;32.83;;;6.20;99.90;;;;;;5091877;28;20520;-69
2022/03/15 08:00:14;;;;;;;57.85;34.53;;;6.30;99.90;;;;;;5092153;28;20107;-70
2022/03/15 08:02:41;;;;;;;55.45;30.25;;;6.40;99.90;;;;;;5073926;28;20048;-70
2022/03/15 08:05:08;;;;;;;61.15;31.23;;;6.40;99.90;;;;;;5056391;28;20032;-71
2022/03/15 08:07:36;;;;;;;58.95;31.25;;;6.40;99.90;;;;;;5073465;28;20484;-71
2022/03/15 08:10:07;;;;;;;51.97;31.88;;;6.40;99.90;;;;;;5091915;28;20401;-71
2022/03/15 08:12:34;;;;;;;51.80;29.83;;;6.50;99.90;;;;;;5073706;28;20028;-70
2022/03/15 08:14:59;;;;;;;53.60;30.02;;;6.50;99.90;;;;;;5073624;28;20078;-71
2022/03/15 08:17:25;;;;;;;55.25;28.60;;;6.50;99.90;;;;;;5091377;28;20064;-71
2022/03/15 08:19:51;;;;;;;59.10;30.73;;;6.50;99.90;;;;;;5073633;28;20043;-71
2022/03/15 08:22:17;;;;;;;56.97;30.48;;;6.50;99.90;;;;;;5073793;28;20039;-71
2022/03/15 08:24:42;;;;;;;52.53;31.05;;;6.60;99.90;;;;;;5091967;28;20515;-71
2022/03/15 08:27:08;;;;;;;56.80;30.45;;;6.60;99.90;;;;;;5088051;28;20119;-71
2022/03/15 08:29:34;;;;;;;53.50;30.27;;;6.70;99.90;;;;;;5073647;28;20044;-71
2022/03/15 08:31:59;;;;;;;52.75;30.25;;;6.70;99.90;;;;;;5091423;28;20044;-71
2022/03/15 08:34:25;;;;;;;52.50;31.63;;;6.70;99.90;;;;;;5073837;28;20059;-71
2022/03/15 08:36:53;;;;;;;61.20;31.70;;;6.80;99.90;;;;;;5091609;28;20158;-71
2022/03/15 08:39:21;;;;;;;57.50;30.88;;;6.80;99.90;;;;;;5073815;28;20435;-71
2022/03/15 08:41:50;;;;;;;60.30;31.23;;;6.90;99.90;;;;;;5085185;28;20047;-73
2022/03/15 08:44:16;;;;;;;50.38;30.02;;;6.80;99.90;;;;;;5071679;28;20526;-70
2022/03/15 08:46:42;;;;;;;49.47;28.90;;;6.90;99.90;;;;;;5070942;28;20111;-71
2022/03/15 08:49:08;;;;;;;51.65;29.52;;;7.00;99.90;;;;;;5071522;28;20052;-71
2022/03/15 08:51:34;;;;;;;52.30;29.67;;;7.00;99.90;;;;;;5038526;28;20040;-70
2022/03/15 08:54:00;;;;;;;51.45;30.60;;;7.00;99.90;;;;;;5056748;28;20033;-74
2022/03/15 08:56:26;;;;;;;51.50;28.70;;;7.10;99.90;;;;;;5052967;28;20127;-70
2022/03/15 08:58:51;;;;;;;51.05;29.83;;;7.10;99.90;;;;;;5071367;28;20049;-71
2022/03/15 09:01:17;;;;;;;52.05;30.63;;;7.10;99.90;;;;;;5071500;28;20097;-71
2022/03/15 09:03:43;;;;;;;52.70;29.83;;;7.00;99.90;;;;;;5053309;28;20036;-70
2022/03/15 09:06:08;;;;;;;63.08;32.95;;;7.10;99.90;;;;;;5052853;28;20033;-70
2022/03/15 09:08:34;;;;;;;50.95;30.30;;;7.10;99.90;;;;;;5071351;28;20410;-71
2022/03/15 09:11:03;;;;;;;44.03;30.08;;;7.10;99.90;;;;;;5071159;28;20111;-71
2022/03/15 09:13:28;;;;;;;56.63;32.20;;;7.20;99.90;;;;;;5071099;28;20040;-70
2022/03/15 09:15:54;;;;;;;47.53;29.17;;;7.20;99.90;;;;;;5073068;28;20040;-71
2022/03/15 09:18:20;;;;;;;51.20;28.83;;;7.30;99.90;;;;;;5056910;28;20048;-70
2022/03/15 09:20:46;;;;;;;60.15;31.88;;;7.30;99.90;;;;;;5057129;28;20048;-71
2022/03/15 09:23:11;;;;;;;59.15;32.35;;;7.30;99.90;;;;;;5056888;28;20047;-71
2022/03/15 09:25:37;;;;;;;54.25;31.75;;;7.30;99.90;;;;;;5056483;28;20144;-70
2022/03/15 09:28:04;;;;;;;54.53;30.83;;;7.40;99.90;;;;;;5074792;28;20409;-71
2022/03/15 09:30:31;;;;;;;51.40;32.88;;;7.40;99.90;;;;;;5074367;28;20032;-71
2022/03/15 09:32:59;;;;;;;53.33;29.52;;;7.50;99.90;;;;;;5056832;28;20051;-71
2022/03/15 09:35:25;;;;;;;56.55;32.13;;;7.50;99.90;;;;;;5074439;28;20115;-70
2022/03/15 09:37:51;;;;;;;50.70;30.70;;;7.50;99.90;;;;;;5074513;28;20450;-71
2022/03/15 09:40:22;;;;;;;55.95;32.72;;;7.60;99.90;;;;;;5056251;28;20037;-71
2022/03/15 09:42:59;;;;;;;52.13;32.03;;;7.60;99.90;;;;;;5074044;28;20405;-75
2022/03/15 09:45:29;;;;;;;55.55;31.13;;;7.60;99.90;;;;;;5056023;28;20379;-70
2022/03/15 09:47:56;;;;;;;65.57;33.05;;;7.70;99.90;;;;;;5082291;28;20042;-71
2022/03/15 09:50:24;;;;;;;48.70;31.38;;;7.80;99.90;;;;;;5086376;28;20043;-71
2022/03/15 09:52:50;;;;;;;51.58;31.77;;;7.80;99.90;;;;;;5083150;28;20029;-70
2022/03/15 09:55:17;;;;;;;47.25;29.73;;;7.90;99.90;;;;;;5083638;28;20040;-71
2022/03/15 09:57:42;;;;;;;57.47;33.25;;;8.00;99.90;;;;;;5066536;28;20115;-72
2022/03/15 10:00:12;;;;;;;50.65;32.45;;;8.10;99.90;;;;;;5061617;28;20483;-71
2022/03/15 10:02:44;;;;;;;49.83;33.00;;;8.20;99.90;;;;;;5078291;28;20072;-70
2022/03/15 10:05:11;;;;;;;58.30;33.63;;;8.40;99.90;;;;;;5048090;28;20072;-71
2022/03/15 10:07:38;;;;;;;47.97;31.00;;;8.50;99.90;;;;;;5083612;28;20063;-71
2022/03/15 10:10:06;;;;;;;49.08;30.55;;;8.60;99.90;;;;;;5083756;28;20123;-71
2022/03/15 10:12:33;;;;;;;47.55;28.58;;;8.80;99.90;;;;;;5086419;28;20563;-73
2022/03/15 10:15:16;;;;;;;45.78;28.95;;;8.90;99.90;;;;;;5094289;28;20116;-70
2022/03/15 10:17:44;;;;;;;40.25;25.77;;;8.90;99.90;;;;;;5093127;28;20047;-70
2022/03/15 10:20:12;;;;;;;41.90;26.35;;;9.00;99.90;;;;;;5093864;28;20186;-71
2022/03/15 10:22:48;;;;;;;41.50;26.00;;;9.10;99.90;;;;;;5093431;28;20058;-70
2022/03/15 10:25:16;;;;;;;37.38;25.50;;;9.10;99.90;;;;;;5093730;28;20044;-70
2022/03/15 10:27:41;;;;;;;40.83;26.00;;;9.20;99.90;;;;;;5091922;28;20405;-70
2022/03/15 10:30:08;;;;;;;47.72;26.38;;;9.30;99.90;;;;;;5093288;28;20036;-69
2022/03/15 10:32:34;;;;;;;38.65;25.13;;;9.30;99.90;;;;;;5097938;22;20051;-67
2022/03/15 10:35:09;;;;;;;41.72;25.40;;;9.40;99.90;;;;;;5053848;28;20048;-67
2022/03/15 10:37:38;;;;;;;34.42;22.85;;;9.50;99.90;;;;;;5075843;28;20036;-67
2022/03/15 10:40:04;;;;;;;34.67;24.23;;;9.50;99.90;;;;;;5082682;28;20091;-67
2022/03/15 10:42:29;;;;;;;35.90;24.60;;;9.60;99.90;;;;;;5086524;28;20047;-67
2022/03/15 10:44:57;;;;;;;36.08;23.42;;;9.70;99.90;;;;;;5083191;28;20037;-69
2022/03/15 10:47:23;;;;;;;35.35;23.38;;;9.80;99.90;;;;;;5074423;28;20040;-68
2022/03/15 10:49:59;;;;;;;32.78;22.73;;;9.80;99.90;;;;;;5073191;28;20123;-68
2022/03/15 10:52:37;;;;;;;34.20;23.02;;;9.80;99.90;;;;;;5077876;28;20563;-68
2022/03/15 10:55:24;;;;;;;34.63;21.95;;;9.80;99.90;;;;;;5086058;28;20165;-68
2022/03/15 10:57:56;;;;;;;31.33;21.38;;;9.80;99.90;;;;;;5092672;28;20055;-68
2022/03/15 11:00:26;;;;;;;32.17;23.17;;;9.90;99.90;;;;;;5092919;28;20405;-70
2022/03/15 11:02:52;;;;;;;33.22;21.77;;;9.90;99.90;;;;;;5092389;28;20516;-68
2022/03/15 11:05:47;;;;;;;30.50;21.33;;;9.90;99.90;;;;;;5092744;28;20078;-70
2022/03/15 11:08:15;;;;;;;30.63;21.25;;;9.90;99.90;;;;;;5082306;28;20048;-69
2022/03/15 11:10:44;;;;;;;33.08;20.38;;;10.00;99.90;;;;;;5083127;28;20416;-69
2022/03/15 11:13:11;;;;;;;32.00;19.92;;;10.00;99.90;;;;;;5081640;28;20509;-70
2022/03/15 11:15:48;;;;;;;30.50;21.17;;;10.00;99.90;;;;;;5081542;28;20036;-69
2022/03/15 11:18:16;;;;;;;29.35;21.60;;;10.00;99.90;;;;;;5080633;28;20040;-69
2022/03/15 11:20:44;;;;;;;31.42;21.08;;;10.00;99.90;;;;;;5088545;28;20048;-68
2022/03/15 11:23:11;;;;;;;30.38;19.85;;;10.10;99.90;;;;;;5092686;28;20088;-68
2022/03/15 11:25:39;;;;;;;28.08;21.20;;;10.10;99.90;;;;;;5090874;28;20119;-68
2022/03/15 11:28:09;;;;;;;31.80;20.65;;;10.10;99.90;;;;;;5092560;28;20036;-68
2022/03/15 11:30:36;;;;;;;32.88;22.38;;;10.10;99.90;;;;;;5083224;28;20032;-68
2022/03/15 11:33:04;;;;;;;32.45;22.08;;;10.10;99.90;;;;;;5089455;28;20603;-68
2022/03/15 11:35:31;;;;;;;33.33;23.35;;;10.10;99.90;;;;;;5091920;28;20040;-68
2022/03/15 11:37:59;;;;;;;34.92;23.05;;;10.10;99.90;;;;;;5086118;28;20086;-68
2022/03/15 11:40:24;;;;;;;31.00;21.73;;;10.10;99.90;;;;;;5080562;28;20032;-68
2022/03/15 11:42:57;;;;;;;31.23;22.90;;;10.00;99.90;;;;;;5074074;28;20387;-69
2022/03/15 11:45:40;;;;;;;36.28;23.77;;;10.10;99.90;;;;;;5070378;28;20715;-67
2022/03/15 11:48:10;;;;;;;32.05;23.15;;;10.00;99.90;;;;;;5072058;28;20059;-68
2022/03/15 11:51:21;;;;;;;34.00;23.90;;;10.00;99.90;;;;;;5071917;28;20089;-68
2022/03/15 11:54:14;;;;;;;35.28;23.92;;;10.00;99.90;;;;;;5071825;28;20402;-68
2022/03/15 11:56:56;;;;;;;35.58;22.85;;;10.00;99.90;;;;;;5071313;28;20051;-68
2022/03/15 11:59:21;;;;;;;38.17;24.77;;;10.00;99.90;;;;;;5071902;28;20041;-68
2022/03/15 12:01:49;;;;;;;38.42;24.52;;;10.00;99.90;;;;;;5070195;28;20040;-68
2022/03/15 12:04:17;;;;;;;34.33;22.38;;;10.00;99.90;;;;;;5071692;28;20100;-68
2022/03/15 12:07:00;;;;;;;28.65;22.42;;;10.00;99.90;;;;;;5071099;28;20528;-68
2022/03/15 12:09:31;;;;;;;34.67;23.52;;;10.00;99.90;;;;;;5071605;28;20044;-68
2022/03/15 12:12:01;;;;;;;32.88;21.85;;;10.10;99.90;;;;;;5073324;28;20041;-68
2022/03/15 12:14:38;;;;;;;30.17;22.08;;;10.10;99.90;;;;;;5090004;28;20054;-68
2022/03/15 12:17:04;;;;;;;37.53;24.88;;;10.20;99.90;;;;;;5091475;28;20118;-68
2022/03/15 12:19:36;;;;;;;34.53;23.88;;;10.20;99.90;;;;;;5091695;28;20040;-68
2022/03/15 12:22:09;;;;;;;31.83;22.88;;;10.30;99.90;;;;;;5091874;28;20054;-68
2022/03/15 12:24:39;;;;;;;31.47;22.10;;;10.40;99.90;;;;;;5091892;28;20040;-67
2022/03/15 12:27:10;;;;;;;30.50;21.48;;;10.40;99.90;;;;;;5087631;28;20313;-68
2022/03/15 12:29:36;;;;;;;30.10;21.48;;;10.50;99.90;;;;;;5082979;28;20042;-70
2022/03/15 12:32:13;;;;;;;34.38;21.58;;;10.60;99.90;;;;;;5070122;28;20402;-68
2022/03/15 12:34:43;;;;;;;33.38;22.50;;;10.70;99.90;;;;;;5071084;28;20097;-67
2022/03/15 12:37:09;;;;;;;35.78;20.88;;;10.80;99.90;;;;;;5070847;28;20083;-66
2022/03/15 12:39:35;;;;;;;29.02;21.67;;;10.90;99.90;;;;;;5071354;28;20036;-66